sensor_id;sensor_type;location;lat;lon;timestamp;P1;durP1;ratioP1;P2;durP2;ratioP2
79646;SDS011;69119;41.718;21.786;2024-03-08T00:00:43;11.18;;;5.10;;
79646;SDS011;69119;41.718;21.786;2024-03-08T00:03:09;11.30;;;5.30;;
79646;SDS011;69119;41.718;21.786;2024-03-08T00:05:35;16.05;;;7.88;;
79646;SDS011;69119;41.718;21.786;2024-03-08T00:08:05;19.00;;;7.57;;
79646;SDS011;69119;41.718;21.786;2024-03-08T00:10:34;13.73;;;5.60;;
79646;SDS011;69119;41.718;21.786;2024-03-08T00:13:00;13.40;;;7.03;;
79646;SDS011;69119;41.718;21.786;2024-03-08T00:15:29;13.85;;;5.00;;
79646;SDS011;69119;41.718;21.786;2024-03-08T00:17:57;12.43;;;6.07;;
79646;SDS011;69119;41.718;21.786;2024-03-08T00:20:23;13.90;;;5.25;;
79646;SDS011;69119;41.718;21.786;2024-03-08T00:22:49;10.65;;;5.82;;
79646;SDS011;69119;41.718;21.786;2024-03-08T00:25:16;12.40;;;4.95;;
79646;SDS011;69119;41.718;21.786;2024-03-08T00:27:43;10.55;;;5.50;;
79646;SDS011;69119;41.718;21.786;2024-03-08T00:30:09;12.70;;;4.78;;
79646;SDS011;69119;41.718;21.786;2024-03-08T00:32:38;14.25;;;6.20;;
79646;SDS011;69119;41.718;21.786;2024-03-08T00:35:04;15.40;;;6.97;;
79646;SDS011;69119;41.718;21.786;2024-03-08T00:37:32;11.73;;;5.13;;
79646;SDS011;69119;41.718;21.786;2024-03-08T00:39:59;11.57;;;6.00;;
79646;SDS011;69119;41.718;21.786;2024-03-08T00:42:25;14.38;;;5.45;;
79646;SDS011;69119;41.718;21.786;2024-03-08T00:44:51;12.77;;;5.65;;
79646;SDS011;69119;41.718;21.786;2024-03-08T00:47:17;12.55;;;4.80;;
79646;SDS011;69119;41.718;21.786;2024-03-08T00:49:44;11.07;;;5.43;;
79646;SDS011;69119;41.718;21.786;2024-03-08T00:52:10;14.90;;;7.40;;
79646;SDS011;69119;41.718;21.786;2024-03-08T00:54:36;14.45;;;6.95;;
79646;SDS011;69119;41.718;21.786;2024-03-08T00:57:02;12.43;;;5.95;;
79646;SDS011;69119;41.718;21.786;2024-03-08T00:59:29;13.23;;;5.88;;
79646;SDS011;69119;41.718;21.786;2024-03-08T01:01:57;12.98;;;5.50;;
79646;SDS011;69119;41.718;21.786;2024-03-08T01:04:24;15.07;;;6.18;;
79646;SDS011;69119;41.718;21.786;2024-03-08T01:06:53;12.93;;;6.63;;
79646;SDS011;69119;41.718;21.786;2024-03-08T01:09:21;10.25;;;5.65;;
79646;SDS011;69119;41.718;21.786;2024-03-08T01:11:47;10.63;;;5.32;;
79646;SDS011;69119;41.718;21.786;2024-03-08T01:14:13;11.80;;;5.35;;
79646;SDS011;69119;41.718;21.786;2024-03-08T01:16:39;12.07;;;5.35;;
79646;SDS011;69119;41.718;21.786;2024-03-08T01:19:06;12.30;;;5.80;;
79646;SDS011;69119;41.718;21.786;2024-03-08T01:21:32;14.10;;;5.53;;
79646;SDS011;69119;41.718;21.786;2024-03-08T01:23:58;15.25;;;6.13;;
79646;SDS011;69119;41.718;21.786;2024-03-08T01:26:24;10.63;;;4.65;;
79646;SDS011;69119;41.718;21.786;2024-03-08T01:28:50;13.13;;;5.60;;
79646;SDS011;69119;41.718;21.786;2024-03-08T01:31:16;11.02;;;5.38;;
79646;SDS011;69119;41.718;21.786;2024-03-08T01:33:42;9.15;;;4.68;;
79646;SDS011;69119;41.718;21.786;2024-03-08T01:36:08;8.48;;;4.05;;
79646;SDS011;69119;41.718;21.786;2024-03-08T01:38:34;7.30;;;3.70;;
79646;SDS011;69119;41.718;21.786;2024-03-08T01:41:01;6.70;;;4.13;;
79646;SDS011;69119;41.718;21.786;2024-03-08T01:43:28;8.50;;;4.18;;
79646;SDS011;69119;41.718;21.786;2024-03-08T01:45:55;8.57;;;4.50;;
79646;SDS011;69119;41.718;21.786;2024-03-08T01:48:24;9.32;;;4.20;;
79646;SDS011;69119;41.718;21.786;2024-03-08T01:50:51;7.63;;;3.80;;
79646;SDS011;69119;41.718;21.786;2024-03-08T01:53:18;9.32;;;4.57;;
79646;SDS011;69119;41.718;21.786;2024-03-08T01:55:44;12.68;;;6.07;;
79646;SDS011;69119;41.718;21.786;2024-03-08T01:58:12;11.20;;;4.80;;
79646;SDS011;69119;41.718;21.786;2024-03-08T02:00:40;10.25;;;4.50;;
79646;SDS011;69119;41.718;21.786;2024-03-08T02:03:08;11.98;;;5.65;;
79646;SDS011;69119;41.718;21.786;2024-03-08T02:08:01;11.35;;;5.75;;
79646;SDS011;69119;41.718;21.786;2024-03-08T02:10:28;9.15;;;5.35;;
79646;SDS011;69119;41.718;21.786;2024-03-08T02:12:54;12.15;;;5.55;;
79646;SDS011;69119;41.718;21.786;2024-03-08T02:15:21;11.55;;;5.45;;
79646;SDS011;69119;41.718;21.786;2024-03-08T02:17:47;10.68;;;5.15;;
79646;SDS011;69119;41.718;21.786;2024-03-08T02:20:14;11.35;;;6.40;;
79646;SDS011;69119;41.718;21.786;2024-03-08T02:22:40;11.50;;;5.65;;
79646;SDS011;69119;41.718;21.786;2024-03-08T02:25:06;15.05;;;6.68;;
79646;SDS011;69119;41.718;21.786;2024-03-08T02:27:34;12.93;;;6.18;;
79646;SDS011;69119;41.718;21.786;2024-03-08T02:30:00;16.00;;;7.68;;
79646;SDS011;69119;41.718;21.786;2024-03-08T02:32:26;19.98;;;8.45;;
79646;SDS011;69119;41.718;21.786;2024-03-08T02:34:55;18.35;;;8.50;;
79646;SDS011;69119;41.718;21.786;2024-03-08T02:37:25;15.45;;;9.40;;
79646;SDS011;69119;41.718;21.786;2024-03-08T02:39:51;13.35;;;7.07;;
79646;SDS011;69119;41.718;21.786;2024-03-08T02:42:17;19.23;;;9.68;;
79646;SDS011;69119;41.718;21.786;2024-03-08T02:44:43;20.52;;;8.15;;
79646;SDS011;69119;41.718;21.786;2024-03-08T02:47:10;15.18;;;8.13;;
79646;SDS011;69119;41.718;21.786;2024-03-08T02:49:36;15.63;;;8.38;;
79646;SDS011;69119;41.718;21.786;2024-03-08T02:52:03;16.33;;;7.53;;
79646;SDS011;69119;41.718;21.786;2024-03-08T02:54:30;16.17;;;9.10;;
79646;SDS011;69119;41.718;21.786;2024-03-08T02:56:56;15.80;;;9.63;;
79646;SDS011;69119;41.718;21.786;2024-03-08T02:59:22;17.85;;;8.82;;
79646;SDS011;69119;41.718;21.786;2024-03-08T03:01:48;17.95;;;7.85;;
79646;SDS011;69119;41.718;21.786;2024-03-08T03:04:15;13.90;;;7.00;;
79646;SDS011;69119;41.718;21.786;2024-03-08T03:06:41;15.70;;;7.47;;
79646;SDS011;69119;41.718;21.786;2024-03-08T03:09:07;11.25;;;6.65;;
79646;SDS011;69119;41.718;21.786;2024-03-08T03:11:35;10.75;;;5.75;;
79646;SDS011;69119;41.718;21.786;2024-03-08T03:14:02;13.35;;;6.45;;
79646;SDS011;69119;41.718;21.786;2024-03-08T03:16:29;14.63;;;7.47;;
79646;SDS011;69119;41.718;21.786;2024-03-08T03:18:55;15.65;;;6.57;;
79646;SDS011;69119;41.718;21.786;2024-03-08T03:21:22;13.10;;;7.50;;
79646;SDS011;69119;41.718;21.786;2024-03-08T03:23:48;11.13;;;5.10;;
79646;SDS011;69119;41.718;21.786;2024-03-08T03:26:14;12.82;;;7.35;;
79646;SDS011;69119;41.718;21.786;2024-03-08T03:28:42;12.30;;;5.88;;
79646;SDS011;69119;41.718;21.786;2024-03-08T03:31:08;12.57;;;7.18;;
79646;SDS011;69119;41.718;21.786;2024-03-08T03:33:39;12.30;;;5.95;;
79646;SDS011;69119;41.718;21.786;2024-03-08T03:36:05;11.02;;;5.50;;
79646;SDS011;69119;41.718;21.786;2024-03-08T03:38:33;11.95;;;6.15;;
79646;SDS011;69119;41.718;21.786;2024-03-08T03:41:00;12.40;;;6.20;;
79646;SDS011;69119;41.718;21.786;2024-03-08T03:43:35;11.45;;;5.60;;
79646;SDS011;69119;41.718;21.786;2024-03-08T03:46:05;11.50;;;6.15;;
79646;SDS011;69119;41.718;21.786;2024-03-08T03:48:31;12.77;;;6.28;;
79646;SDS011;69119;41.718;21.786;2024-03-08T03:50:57;13.70;;;6.68;;
79646;SDS011;69119;41.718;21.786;2024-03-08T03:53:23;13.65;;;7.15;;
79646;SDS011;69119;41.718;21.786;2024-03-08T03:55:51;13.10;;;6.70;;
79646;SDS011;69119;41.718;21.786;2024-03-08T03:58:17;15.90;;;8.43;;
79646;SDS011;69119;41.718;21.786;2024-03-08T04:00:47;14.15;;;7.35;;
79646;SDS011;69119;41.718;21.786;2024-03-08T04:05:41;22.33;;;9.98;;
79646;SDS011;69119;41.718;21.786;2024-03-08T04:08:08;19.30;;;9.93;;
79646;SDS011;69119;41.718;21.786;2024-03-08T04:10:34;16.67;;;7.95;;
79646;SDS011;69119;41.718;21.786;2024-03-08T04:13:00;14.15;;;6.97;;
79646;SDS011;69119;41.718;21.786;2024-03-08T04:15:26;14.52;;;6.95;;
79646;SDS011;69119;41.718;21.786;2024-03-08T04:17:52;14.77;;;7.30;;
79646;SDS011;69119;41.718;21.786;2024-03-08T04:20:18;13.45;;;7.32;;
79646;SDS011;69119;41.718;21.786;2024-03-08T04:22:44;15.60;;;6.82;;
79646;SDS011;69119;41.718;21.786;2024-03-08T04:25:14;15.88;;;7.63;;
79646;SDS011;69119;41.718;21.786;2024-03-08T04:27:40;18.92;;;10.40;;
79646;SDS011;69119;41.718;21.786;2024-03-08T04:30:06;18.35;;;10.10;;
79646;SDS011;69119;41.718;21.786;2024-03-08T04:32:32;16.60;;;8.75;;
79646;SDS011;69119;41.718;21.786;2024-03-08T04:34:59;15.50;;;9.02;;
79646;SDS011;69119;41.718;21.786;2024-03-08T04:37:26;14.40;;;8.15;;
79646;SDS011;69119;41.718;21.786;2024-03-08T04:39:54;17.10;;;8.07;;
79646;SDS011;69119;41.718;21.786;2024-03-08T04:42:20;15.05;;;8.32;;
79646;SDS011;69119;41.718;21.786;2024-03-08T04:44:48;13.05;;;7.38;;
79646;SDS011;69119;41.718;21.786;2024-03-08T04:47:14;13.98;;;6.70;;
79646;SDS011;69119;41.718;21.786;2024-03-08T04:49:42;17.15;;;8.50;;
79646;SDS011;69119;41.718;21.786;2024-03-08T04:52:08;14.27;;;7.97;;
79646;SDS011;69119;41.718;21.786;2024-03-08T04:54:35;16.33;;;8.48;;
79646;SDS011;69119;41.718;21.786;2024-03-08T04:57:01;16.63;;;9.52;;
79646;SDS011;69119;41.718;21.786;2024-03-08T04:59:27;13.93;;;8.23;;
79646;SDS011;69119;41.718;21.786;2024-03-08T05:01:53;12.73;;;7.60;;
79646;SDS011;69119;41.718;21.786;2024-03-08T05:04:19;16.00;;;8.77;;
79646;SDS011;69119;41.718;21.786;2024-03-08T05:06:45;18.52;;;8.20;;
79646;SDS011;69119;41.718;21.786;2024-03-08T05:09:11;26.40;;;14.43;;
79646;SDS011;69119;41.718;21.786;2024-03-08T05:11:44;41.85;;;23.35;;
79646;SDS011;69119;41.718;21.786;2024-03-08T05:14:11;27.33;;;14.73;;
79646;SDS011;69119;41.718;21.786;2024-03-08T05:16:47;34.05;;;17.92;;
79646;SDS011;69119;41.718;21.786;2024-03-08T05:19:16;29.25;;;15.07;;
79646;SDS011;69119;41.718;21.786;2024-03-08T05:21:46;29.80;;;16.75;;
79646;SDS011;69119;41.718;21.786;2024-03-08T05:24:13;29.48;;;15.45;;
79646;SDS011;69119;41.718;21.786;2024-03-08T05:26:40;28.42;;;14.45;;
79646;SDS011;69119;41.718;21.786;2024-03-08T05:29:07;25.02;;;13.00;;
79646;SDS011;69119;41.718;21.786;2024-03-08T05:31:42;20.77;;;11.68;;
79646;SDS011;69119;41.718;21.786;2024-03-08T05:34:11;18.50;;;9.50;;
79646;SDS011;69119;41.718;21.786;2024-03-08T05:36:39;21.13;;;11.35;;
79646;SDS011;69119;41.718;21.786;2024-03-08T05:39:05;19.58;;;8.77;;
79646;SDS011;69119;41.718;21.786;2024-03-08T05:41:32;13.35;;;6.25;;
79646;SDS011;69119;41.718;21.786;2024-03-08T05:43:58;13.60;;;7.10;;
79646;SDS011;69119;41.718;21.786;2024-03-08T05:46:24;11.43;;;6.15;;
79646;SDS011;69119;41.718;21.786;2024-03-08T05:48:50;10.25;;;5.50;;
79646;SDS011;69119;41.718;21.786;2024-03-08T05:51:16;10.25;;;5.88;;
79646;SDS011;69119;41.718;21.786;2024-03-08T05:53:42;10.75;;;4.97;;
79646;SDS011;69119;41.718;21.786;2024-03-08T05:56:08;10.07;;;5.45;;
79646;SDS011;69119;41.718;21.786;2024-03-08T05:58:35;19.40;;;9.40;;
79646;SDS011;69119;41.718;21.786;2024-03-08T06:01:01;19.15;;;9.27;;
79646;SDS011;69119;41.718;21.786;2024-03-08T06:03:27;17.13;;;8.95;;
79646;SDS011;69119;41.718;21.786;2024-03-08T06:05:53;19.48;;;9.10;;
79646;SDS011;69119;41.718;21.786;2024-03-08T06:08:19;21.10;;;9.82;;
79646;SDS011;69119;41.718;21.786;2024-03-08T06:10:45;42.35;;;19.23;;
79646;SDS011;69119;41.718;21.786;2024-03-08T06:13:13;21.83;;;10.50;;
79646;SDS011;69119;41.718;21.786;2024-03-08T06:15:39;48.38;;;21.35;;
79646;SDS011;69119;41.718;21.786;2024-03-08T06:18:07;23.30;;;11.55;;
79646;SDS011;69119;41.718;21.786;2024-03-08T06:20:35;16.30;;;7.93;;
79646;SDS011;69119;41.718;21.786;2024-03-08T06:23:01;14.50;;;6.95;;
79646;SDS011;69119;41.718;21.786;2024-03-08T06:25:27;19.67;;;9.13;;
79646;SDS011;69119;41.718;21.786;2024-03-08T06:27:54;19.52;;;7.53;;
79646;SDS011;69119;41.718;21.786;2024-03-08T06:30:20;27.65;;;16.30;;
79646;SDS011;69119;41.718;21.786;2024-03-08T06:32:46;20.27;;;10.88;;
79646;SDS011;69119;41.718;21.786;2024-03-08T06:35:12;23.73;;;13.02;;
79646;SDS011;69119;41.718;21.786;2024-03-08T06:37:40;12.25;;;6.60;;
79646;SDS011;69119;41.718;21.786;2024-03-08T06:40:09;22.00;;;11.35;;
79646;SDS011;69119;41.718;21.786;2024-03-08T06:42:38;14.88;;;8.63;;
79646;SDS011;69119;41.718;21.786;2024-03-08T06:45:05;19.92;;;12.32;;
79646;SDS011;69119;41.718;21.786;2024-03-08T06:47:31;24.60;;;14.77;;
79646;SDS011;69119;41.718;21.786;2024-03-08T06:49:58;19.40;;;10.82;;
79646;SDS011;69119;41.718;21.786;2024-03-08T06:52:24;11.30;;;6.70;;
79646;SDS011;69119;41.718;21.786;2024-03-08T06:54:50;14.63;;;8.73;;
79646;SDS011;69119;41.718;21.786;2024-03-08T06:57:17;14.35;;;8.02;;
79646;SDS011;69119;41.718;21.786;2024-03-08T06:59:45;11.23;;;5.38;;
79646;SDS011;69119;41.718;21.786;2024-03-08T07:02:11;11.10;;;5.80;;
79646;SDS011;69119;41.718;21.786;2024-03-08T07:04:38;12.70;;;6.88;;
79646;SDS011;69119;41.718;21.786;2024-03-08T07:07:04;10.73;;;5.82;;
79646;SDS011;69119;41.718;21.786;2024-03-08T07:09:34;11.90;;;5.97;;
79646;SDS011;69119;41.718;21.786;2024-03-08T07:14:26;13.38;;;6.03;;
79646;SDS011;69119;41.718;21.786;2024-03-08T07:16:53;15.95;;;8.98;;
79646;SDS011;69119;41.718;21.786;2024-03-08T07:19:19;9.70;;;4.25;;
79646;SDS011;69119;41.718;21.786;2024-03-08T07:21:46;8.20;;;3.97;;
79646;SDS011;69119;41.718;21.786;2024-03-08T07:24:13;8.02;;;3.67;;
79646;SDS011;69119;41.718;21.786;2024-03-08T07:26:42;9.05;;;4.10;;
79646;SDS011;69119;41.718;21.786;2024-03-08T07:29:08;7.43;;;3.67;;
79646;SDS011;69119;41.718;21.786;2024-03-08T07:31:34;10.68;;;4.43;;
79646;SDS011;69119;41.718;21.786;2024-03-08T07:34:15;8.63;;;4.88;;
79646;SDS011;69119;41.718;21.786;2024-03-08T07:36:41;9.38;;;5.40;;
79646;SDS011;69119;41.718;21.786;2024-03-08T07:39:08;7.72;;;4.50;;
79646;SDS011;69119;41.718;21.786;2024-03-08T07:41:37;7.75;;;3.85;;
79646;SDS011;69119;41.718;21.786;2024-03-08T07:44:05;7.18;;;3.55;;
79646;SDS011;69119;41.718;21.786;2024-03-08T07:46:31;8.25;;;4.68;;
79646;SDS011;69119;41.718;21.786;2024-03-08T07:49:00;9.48;;;4.32;;
79646;SDS011;69119;41.718;21.786;2024-03-08T07:51:26;9.98;;;4.88;;
79646;SDS011;69119;41.718;21.786;2024-03-08T07:53:52;9.60;;;4.78;;
79646;SDS011;69119;41.718;21.786;2024-03-08T07:56:18;8.75;;;5.13;;
79646;SDS011;69119;41.718;21.786;2024-03-08T07:58:46;9.70;;;4.70;;
79646;SDS011;69119;41.718;21.786;2024-03-08T08:01:18;8.20;;;3.75;;
79646;SDS011;69119;41.718;21.786;2024-03-08T08:03:45;8.98;;;4.32;;
79646;SDS011;69119;41.718;21.786;2024-03-08T08:06:14;11.45;;;6.40;;
79646;SDS011;69119;41.718;21.786;2024-03-08T08:08:43;8.93;;;4.40;;
79646;SDS011;69119;41.718;21.786;2024-03-08T08:11:10;8.90;;;4.88;;
79646;SDS011;69119;41.718;21.786;2024-03-08T08:13:37;8.90;;;4.75;;
79646;SDS011;69119;41.718;21.786;2024-03-08T08:18:31;5.53;;;2.67;;
79646;SDS011;69119;41.718;21.786;2024-03-08T08:20:58;8.55;;;3.45;;
79646;SDS011;69119;41.718;21.786;2024-03-08T08:23:27;9.30;;;5.40;;
79646;SDS011;69119;41.718;21.786;2024-03-08T08:25:54;10.13;;;6.03;;
79646;SDS011;69119;41.718;21.786;2024-03-08T08:28:20;8.00;;;4.25;;
79646;SDS011;69119;41.718;21.786;2024-03-08T08:30:46;8.80;;;4.88;;
79646;SDS011;69119;41.718;21.786;2024-03-08T08:33:14;10.52;;;4.85;;
79646;SDS011;69119;41.718;21.786;2024-03-08T08:38:06;9.95;;;5.22;;
79646;SDS011;69119;41.718;21.786;2024-03-08T08:40:35;12.07;;;7.72;;
79646;SDS011;69119;41.718;21.786;2024-03-08T08:43:02;12.25;;;6.80;;
79646;SDS011;69119;41.718;21.786;2024-03-08T08:45:32;9.85;;;5.60;;
79646;SDS011;69119;41.718;21.786;2024-03-08T08:50:27;20.92;;;14.32;;
79646;SDS011;69119;41.718;21.786;2024-03-08T08:52:53;12.35;;;8.48;;
79646;SDS011;69119;41.718;21.786;2024-03-08T08:55:20;10.68;;;6.47;;
79646;SDS011;69119;41.718;21.786;2024-03-08T08:57:46;10.85;;;6.80;;
79646;SDS011;69119;41.718;21.786;2024-03-08T09:00:13;9.85;;;5.93;;
79646;SDS011;69119;41.718;21.786;2024-03-08T09:02:43;11.65;;;5.75;;
79646;SDS011;69119;41.718;21.786;2024-03-08T09:07:44;8.90;;;5.68;;
79646;SDS011;69119;41.718;21.786;2024-03-08T09:10:11;11.13;;;6.57;;
79646;SDS011;69119;41.718;21.786;2024-03-08T09:12:40;8.35;;;4.80;;
79646;SDS011;69119;41.718;21.786;2024-03-08T09:15:06;10.50;;;5.82;;
79646;SDS011;69119;41.718;21.786;2024-03-08T09:17:39;9.88;;;5.53;;
79646;SDS011;69119;41.718;21.786;2024-03-08T09:20:06;15.10;;;8.52;;
79646;SDS011;69119;41.718;21.786;2024-03-08T09:22:32;10.27;;;4.65;;
79646;SDS011;69119;41.718;21.786;2024-03-08T09:24:58;10.02;;;5.80;;
79646;SDS011;69119;41.718;21.786;2024-03-08T09:27:24;9.32;;;4.50;;
79646;SDS011;69119;41.718;21.786;2024-03-08T09:29:50;15.30;;;10.20;;
79646;SDS011;69119;41.718;21.786;2024-03-08T09:32:16;10.73;;;5.78;;
79646;SDS011;69119;41.718;21.786;2024-03-08T09:34:43;8.60;;;4.30;;
79646;SDS011;69119;41.718;21.786;2024-03-08T09:37:09;8.50;;;3.95;;
79646;SDS011;69119;41.718;21.786;2024-03-08T09:39:35;11.18;;;4.60;;
79646;SDS011;69119;41.718;21.786;2024-03-08T09:42:02;7.97;;;3.22;;
79646;SDS011;69119;41.718;21.786;2024-03-08T09:44:28;8.38;;;3.28;;
79646;SDS011;69119;41.718;21.786;2024-03-08T09:46:55;7.85;;;4.00;;
79646;SDS011;69119;41.718;21.786;2024-03-08T09:49:23;11.68;;;4.85;;
79646;SDS011;69119;41.718;21.786;2024-03-08T09:51:49;8.35;;;2.00;;
79646;SDS011;69119;41.718;21.786;2024-03-08T09:54:16;6.65;;;3.58;;
79646;SDS011;69119;41.718;21.786;2024-03-08T09:56:45;16.20;;;6.55;;
79646;SDS011;69119;41.718;21.786;2024-03-08T09:59:13;7.93;;;3.45;;
79646;SDS011;69119;41.718;21.786;2024-03-08T10:01:39;10.55;;;4.47;;
79646;SDS011;69119;41.718;21.786;2024-03-08T10:06:31;8.35;;;3.90;;
79646;SDS011;69119;41.718;21.786;2024-03-08T10:08:57;9.10;;;4.03;;
79646;SDS011;69119;41.718;21.786;2024-03-08T10:11:26;7.97;;;4.22;;
79646;SDS011;69119;41.718;21.786;2024-03-08T10:13:52;6.65;;;3.05;;
79646;SDS011;69119;41.718;21.786;2024-03-08T10:18:45;7.72;;;3.50;;
79646;SDS011;69119;41.718;21.786;2024-03-08T10:21:11;7.60;;;3.60;;
79646;SDS011;69119;41.718;21.786;2024-03-08T10:23:40;8.27;;;4.05;;
79646;SDS011;69119;41.718;21.786;2024-03-08T10:26:11;16.08;;;7.53;;
79646;SDS011;69119;41.718;21.786;2024-03-08T10:28:41;11.07;;;5.85;;
79646;SDS011;69119;41.718;21.786;2024-03-08T10:31:08;9.57;;;5.03;;
79646;SDS011;69119;41.718;21.786;2024-03-08T10:33:34;8.27;;;4.30;;
79646;SDS011;69119;41.718;21.786;2024-03-08T10:36:03;8.85;;;4.13;;
79646;SDS011;69119;41.718;21.786;2024-03-08T10:40:56;10.55;;;6.80;;
79646;SDS011;69119;41.718;21.786;2024-03-08T10:43:25;8.18;;;3.30;;
79646;SDS011;69119;41.718;21.786;2024-03-08T10:45:56;7.15;;;3.65;;
79646;SDS011;69119;41.718;21.786;2024-03-08T10:48:28;6.72;;;3.17;;
79646;SDS011;69119;41.718;21.786;2024-03-08T10:50:58;6.55;;;3.33;;
79646;SDS011;69119;41.718;21.786;2024-03-08T10:53:26;7.65;;;2.90;;
79646;SDS011;69119;41.718;21.786;2024-03-08T10:55:54;7.05;;;3.35;;
79646;SDS011;69119;41.718;21.786;2024-03-08T10:58:22;6.90;;;2.35;;
79646;SDS011;69119;41.718;21.786;2024-03-08T11:00:48;6.97;;;3.10;;
79646;SDS011;69119;41.718;21.786;2024-03-08T11:06:00;6.35;;;3.13;;
79646;SDS011;69119;41.718;21.786;2024-03-08T11:08:26;8.77;;;3.70;;
79646;SDS011;69119;41.718;21.786;2024-03-08T11:10:56;9.13;;;3.33;;
79646;SDS011;69119;41.718;21.786;2024-03-08T11:18:59;7.70;;;2.90;;
79646;SDS011;69119;41.718;21.786;2024-03-08T11:21:29;6.55;;;3.35;;
79646;SDS011;69119;41.718;21.786;2024-03-08T11:24:01;7.82;;;3.15;;
79646;SDS011;69119;41.718;21.786;2024-03-08T11:26:30;9.30;;;4.45;;
79646;SDS011;69119;41.718;21.786;2024-03-08T11:31:41;9.98;;;3.50;;
79646;SDS011;69119;41.718;21.786;2024-03-08T11:34:16;6.32;;;2.53;;
79646;SDS011;69119;41.718;21.786;2024-03-08T11:36:44;6.97;;;2.53;;
79646;SDS011;69119;41.718;21.786;2024-03-08T11:39:13;7.32;;;2.72;;
79646;SDS011;69119;41.718;21.786;2024-03-08T11:41:40;6.85;;;2.83;;
79646;SDS011;69119;41.718;21.786;2024-03-08T11:44:10;5.90;;;2.25;;
79646;SDS011;69119;41.718;21.786;2024-03-08T11:46:41;5.45;;;2.05;;
79646;SDS011;69119;41.718;21.786;2024-03-08T11:49:11;6.20;;;2.50;;
79646;SDS011;69119;41.718;21.786;2024-03-08T11:51:37;16.63;;;3.28;;
79646;SDS011;69119;41.718;21.786;2024-03-08T11:54:04;5.43;;;2.33;;
79646;SDS011;69119;41.718;21.786;2024-03-08T11:56:31;6.97;;;3.25;;
79646;SDS011;69119;41.718;21.786;2024-03-08T11:58:57;5.97;;;2.25;;
79646;SDS011;69119;41.718;21.786;2024-03-08T12:01:24;5.85;;;2.47;;
79646;SDS011;69119;41.718;21.786;2024-03-08T12:03:54;8.70;;;3.13;;
79646;SDS011;69119;41.718;21.786;2024-03-08T12:06:23;6.93;;;2.83;;
79646;SDS011;69119;41.718;21.786;2024-03-08T12:08:50;6.63;;;2.47;;
79646;SDS011;69119;41.718;21.786;2024-03-08T12:11:19;4.35;;;1.35;;
79646;SDS011;69119;41.718;21.786;2024-03-08T12:13:48;6.03;;;1.83;;
79646;SDS011;69119;41.718;21.786;2024-03-08T12:16:16;10.18;;;4.68;;
79646;SDS011;69119;41.718;21.786;2024-03-08T12:18:43;6.43;;;2.88;;
79646;SDS011;69119;41.718;21.786;2024-03-08T12:21:11;6.55;;;2.28;;
79646;SDS011;69119;41.718;21.786;2024-03-08T12:23:45;6.25;;;2.38;;
79646;SDS011;69119;41.718;21.786;2024-03-08T12:28:41;5.60;;;2.20;;
79646;SDS011;69119;41.718;21.786;2024-03-08T12:31:09;6.50;;;2.85;;
79646;SDS011;69119;41.718;21.786;2024-03-08T12:33:37;6.43;;;2.90;;
79646;SDS011;69119;41.718;21.786;2024-03-08T12:36:14;5.43;;;2.40;;
79646;SDS011;69119;41.718;21.786;2024-03-08T12:38:43;8.43;;;2.28;;
79646;SDS011;69119;41.718;21.786;2024-03-08T12:41:09;8.07;;;2.75;;
79646;SDS011;69119;41.718;21.786;2024-03-08T12:43:35;10.43;;;4.57;;
79646;SDS011;69119;41.718;21.786;2024-03-08T12:46:01;7.10;;;2.47;;
79646;SDS011;69119;41.718;21.786;2024-03-08T12:48:29;7.28;;;3.47;;
79646;SDS011;69119;41.718;21.786;2024-03-08T12:51:00;6.35;;;2.20;;
79646;SDS011;69119;41.718;21.786;2024-03-08T12:53:26;4.75;;;1.45;;
79646;SDS011;69119;41.718;21.786;2024-03-08T12:55:54;4.20;;;1.15;;
79646;SDS011;69119;41.718;21.786;2024-03-08T12:58:22;5.22;;;1.17;;
79646;SDS011;69119;41.718;21.786;2024-03-08T13:03:14;5.47;;;1.58;;
79646;SDS011;69119;41.718;21.786;2024-03-08T13:08:08;5.78;;;2.05;;
79646;SDS011;69119;41.718;21.786;2024-03-08T13:10:39;6.22;;;1.73;;
79646;SDS011;69119;41.718;21.786;2024-03-08T13:13:05;65.82;;;7.18;;
79646;SDS011;69119;41.718;21.786;2024-03-08T13:15:31;7.25;;;1.83;;
79646;SDS011;69119;41.718;21.786;2024-03-08T13:17:58;29.58;;;3.60;;
79646;SDS011;69119;41.718;21.786;2024-03-08T13:20:25;4.80;;;1.83;;
79646;SDS011;69119;41.718;21.786;2024-03-08T13:22:53;58.22;;;5.65;;
79646;SDS011;69119;41.718;21.786;2024-03-08T13:25:20;12.68;;;2.63;;
79646;SDS011;69119;41.718;21.786;2024-03-08T13:27:46;5.85;;;2.05;;
79646;SDS011;69119;41.718;21.786;2024-03-08T13:30:14;5.78;;;2.38;;
79646;SDS011;69119;41.718;21.786;2024-03-08T13:32:43;5.97;;;2.45;;
79646;SDS011;69119;41.718;21.786;2024-03-08T13:35:10;6.43;;;2.22;;
79646;SDS011;69119;41.718;21.786;2024-03-08T13:37:42;7.30;;;2.45;;
79646;SDS011;69119;41.718;21.786;2024-03-08T13:40:09;5.75;;;2.55;;
79646;SDS011;69119;41.718;21.786;2024-03-08T13:42:38;6.47;;;1.83;;
79646;SDS011;69119;41.718;21.786;2024-03-08T13:45:05;6.40;;;2.90;;
79646;SDS011;69119;41.718;21.786;2024-03-08T13:47:32;8.55;;;3.67;;
79646;SDS011;69119;41.718;21.786;2024-03-08T13:49:59;6.93;;;2.63;;
79646;SDS011;69119;41.718;21.786;2024-03-08T13:52:26;6.80;;;2.85;;
79646;SDS011;69119;41.718;21.786;2024-03-08T13:54:54;9.70;;;4.32;;
79646;SDS011;69119;41.718;21.786;2024-03-08T13:57:20;10.80;;;4.55;;
79646;SDS011;69119;41.718;21.786;2024-03-08T13:59:47;9.85;;;4.95;;
79646;SDS011;69119;41.718;21.786;2024-03-08T14:02:17;9.52;;;4.60;;
79646;SDS011;69119;41.718;21.786;2024-03-08T14:04:43;7.85;;;3.00;;
79646;SDS011;69119;41.718;21.786;2024-03-08T14:07:09;9.38;;;2.92;;
79646;SDS011;69119;41.718;21.786;2024-03-08T14:09:36;6.57;;;2.03;;
79646;SDS011;69119;41.718;21.786;2024-03-08T14:12:07;7.35;;;2.53;;
79646;SDS011;69119;41.718;21.786;2024-03-08T14:14:33;5.60;;;2.40;;
79646;SDS011;69119;41.718;21.786;2024-03-08T14:17:03;5.78;;;2.85;;
79646;SDS011;69119;41.718;21.786;2024-03-08T14:19:29;10.13;;;4.72;;
79646;SDS011;69119;41.718;21.786;2024-03-08T14:24:29;6.25;;;2.05;;
79646;SDS011;69119;41.718;21.786;2024-03-08T14:26:56;4.03;;;1.63;;
79646;SDS011;69119;41.718;21.786;2024-03-08T14:29:24;5.85;;;1.55;;
79646;SDS011;69119;41.718;21.786;2024-03-08T14:31:54;5.95;;;2.17;;
79646;SDS011;69119;41.718;21.786;2024-03-08T14:34:24;7.40;;;2.45;;
79646;SDS011;69119;41.718;21.786;2024-03-08T14:36:52;8.95;;;3.35;;
79646;SDS011;69119;41.718;21.786;2024-03-08T14:41:50;7.22;;;3.85;;
79646;SDS011;69119;41.718;21.786;2024-03-08T14:44:19;7.45;;;3.05;;
79646;SDS011;69119;41.718;21.786;2024-03-08T14:49:11;7.88;;;2.95;;
79646;SDS011;69119;41.718;21.786;2024-03-08T14:51:38;7.57;;;2.78;;
79646;SDS011;69119;41.718;21.786;2024-03-08T14:54:04;11.30;;;5.15;;
79646;SDS011;69119;41.718;21.786;2024-03-08T14:56:32;6.68;;;2.80;;
79646;SDS011;69119;41.718;21.786;2024-03-08T14:58:58;6.40;;;3.05;;
79646;SDS011;69119;41.718;21.786;2024-03-08T15:01:24;6.38;;;2.08;;
79646;SDS011;69119;41.718;21.786;2024-03-08T15:03:54;6.57;;;1.77;;
79646;SDS011;69119;41.718;21.786;2024-03-08T15:06:21;5.63;;;2.55;;
79646;SDS011;69119;41.718;21.786;2024-03-08T15:08:47;7.35;;;2.85;;
79646;SDS011;69119;41.718;21.786;2024-03-08T15:11:13;6.82;;;2.25;;
79646;SDS011;69119;41.718;21.786;2024-03-08T15:13:48;6.15;;;2.17;;
79646;SDS011;69119;41.718;21.786;2024-03-08T15:16:18;5.25;;;2.05;;